sensor_id;sensor_type;location;lat;lon;timestamp;P1;durP1;ratioP1;P2;durP2;ratioP2
48951;SDS011;34758;42.148;24.744;2024-02-04T00:00:57;2.60;;;1.27;;
48951;SDS011;34758;42.148;24.744;2024-02-04T00:03:28;2.72;;;1.35;;
48951;SDS011;34758;42.148;24.744;2024-02-04T00:06:02;2.88;;;1.45;;
48951;SDS011;34758;42.148;24.744;2024-02-04T00:08:42;2.00;;;1.40;;
48951;SDS011;34758;42.148;24.744;2024-02-04T00:11:16;3.60;;;1.42;;
48951;SDS011;34758;42.148;24.744;2024-02-04T00:13:46;1.25;;;1.02;;
48951;SDS011;34758;42.148;24.744;2024-02-04T00:16:14;2.28;;;1.30;;
48951;SDS011;34758;42.148;24.744;2024-02-04T00:18:43;3.50;;;1.65;;
48951;SDS011;34758;42.148;24.744;2024-02-04T00:21:13;3.03;;;1.10;;
48951;SDS011;34758;42.148;24.744;2024-02-04T00:23:47;2.45;;;1.33;;
48951;SDS011;34758;42.148;24.744;2024-02-04T00:26:23;3.15;;;1.40;;
48951;SDS011;34758;42.148;24.744;2024-02-04T00:28:52;2.50;;;1.45;;
48951;SDS011;34758;42.148;24.744;2024-02-04T00:31:28;2.08;;;1.20;;
48951;SDS011;34758;42.148;24.744;2024-02-04T00:34:00;1.85;;;1.23;;
48951;SDS011;34758;42.148;24.744;2024-02-04T00:36:31;2.20;;;1.00;;
48951;SDS011;34758;42.148;24.744;2024-02-04T00:38:59;2.38;;;1.30;;
48951;SDS011;34758;42.148;24.744;2024-02-04T00:41:29;3.08;;;1.35;;
48951;SDS011;34758;42.148;24.744;2024-02-04T00:44:02;2.30;;;1.17;;
48951;SDS011;34758;42.148;24.744;2024-02-04T00:46:33;1.90;;;1.25;;
48951;SDS011;34758;42.148;24.744;2024-02-04T00:49:03;2.58;;;1.30;;
48951;SDS011;34758;42.148;24.744;2024-02-04T00:51:34;1.83;;;1.13;;
48951;SDS011;34758;42.148;24.744;2024-02-04T00:54:02;2.90;;;1.35;;
48951;SDS011;34758;42.148;24.744;2024-02-04T00:56:36;5.00;;;1.70;;
48951;SDS011;34758;42.148;24.744;2024-02-04T00:59:10;4.10;;;2.13;;
48951;SDS011;34758;42.148;24.744;2024-02-04T01:01:45;2.08;;;1.75;;
48951;SDS011;34758;42.148;24.744;2024-02-04T01:04:25;2.65;;;1.52;;
48951;SDS011;34758;42.148;24.744;2024-02-04T01:07:08;3.97;;;1.88;;
48951;SDS011;34758;42.148;24.744;2024-02-04T01:09:42;2.58;;;1.63;;
48951;SDS011;34758;42.148;24.744;2024-02-04T01:12:13;2.67;;;1.40;;
48951;SDS011;34758;42.148;24.744;2024-02-04T01:14:42;2.78;;;1.52;;
48951;SDS011;34758;42.148;24.744;2024-02-04T01:17:11;3.33;;;1.73;;
48951;SDS011;34758;42.148;24.744;2024-02-04T01:19:43;3.65;;;1.63;;
48951;SDS011;34758;42.148;24.744;2024-02-04T01:22:11;4.50;;;1.90;;
48951;SDS011;34758;42.148;24.744;2024-02-04T01:24:40;1.85;;;1.52;;
48951;SDS011;34758;42.148;24.744;2024-02-04T01:27:07;2.40;;;1.70;;
48951;SDS011;34758;42.148;24.744;2024-02-04T01:29:40;3.25;;;1.80;;
48951;SDS011;34758;42.148;24.744;2024-02-04T01:32:07;4.18;;;1.60;;
48951;SDS011;34758;42.148;24.744;2024-02-04T01:34:35;2.42;;;1.70;;
48951;SDS011;34758;42.148;24.744;2024-02-04T01:37:04;4.68;;;1.70;;
48951;SDS011;34758;42.148;24.744;2024-02-04T01:39:31;3.50;;;1.58;;
48951;SDS011;34758;42.148;24.744;2024-02-04T01:41:59;2.88;;;1.92;;
48951;SDS011;34758;42.148;24.744;2024-02-04T01:44:28;3.38;;;1.58;;
48951;SDS011;34758;42.148;24.744;2024-02-04T01:46:57;3.35;;;1.60;;
48951;SDS011;34758;42.148;24.744;2024-02-04T01:49:26;3.33;;;1.80;;
48951;SDS011;34758;42.148;24.744;2024-02-04T01:51:55;2.85;;;1.40;;
48951;SDS011;34758;42.148;24.744;2024-02-04T01:54:23;2.35;;;1.50;;
48951;SDS011;34758;42.148;24.744;2024-02-04T01:56:52;2.80;;;1.60;;
48951;SDS011;34758;42.148;24.744;2024-02-04T01:59:19;2.80;;;1.80;;
48951;SDS011;34758;42.148;24.744;2024-02-04T02:01:53;4.40;;;1.80;;
48951;SDS011;34758;42.148;24.744;2024-02-04T02:04:23;3.10;;;1.48;;
48951;SDS011;34758;42.148;24.744;2024-02-04T02:06:54;2.22;;;1.50;;
48951;SDS011;34758;42.148;24.744;2024-02-04T02:09:22;2.00;;;1.30;;
48951;SDS011;34758;42.148;24.744;2024-02-04T02:11:51;1.67;;;1.50;;
48951;SDS011;34758;42.148;24.744;2024-02-04T02:14:26;2.78;;;1.30;;
48951;SDS011;34758;42.148;24.744;2024-02-04T02:17:00;3.67;;;1.80;;
48951;SDS011;34758;42.148;24.744;2024-02-04T02:19:39;3.08;;;1.38;;
48951;SDS011;34758;42.148;24.744;2024-02-04T02:22:13;5.68;;;1.80;;
48951;SDS011;34758;42.148;24.744;2024-02-04T02:24:49;2.72;;;1.80;;
48951;SDS011;34758;42.148;24.744;2024-02-04T02:27:20;2.05;;;1.45;;
48951;SDS011;34758;42.148;24.744;2024-02-04T02:29:47;3.55;;;1.98;;
48951;SDS011;34758;42.148;24.744;2024-02-04T02:32:15;3.45;;;1.50;;
48951;SDS011;34758;42.148;24.744;2024-02-04T02:34:45;3.40;;;1.90;;
48951;SDS011;34758;42.148;24.744;2024-02-04T02:37:20;2.22;;;1.70;;
48951;SDS011;34758;42.148;24.744;2024-02-04T02:40:01;3.35;;;1.65;;
48951;SDS011;34758;42.148;24.744;2024-02-04T02:42:33;3.05;;;1.58;;
48951;SDS011;34758;42.148;24.744;2024-02-04T02:45:02;3.10;;;1.60;;
48951;SDS011;34758;42.148;24.744;2024-02-04T02:47:30;2.85;;;1.67;;
48951;SDS011;34758;42.148;24.744;2024-02-04T02:50:00;2.40;;;1.33;;
48951;SDS011;34758;42.148;24.744;2024-02-04T02:52:30;2.08;;;1.33;;
48951;SDS011;34758;42.148;24.744;2024-02-04T02:54:59;2.55;;;1.42;;
48951;SDS011;34758;42.148;24.744;2024-02-04T02:57:26;5.05;;;1.80;;
48951;SDS011;34758;42.148;24.744;2024-02-04T02:59:53;2.17;;;1.20;;
48951;SDS011;34758;42.148;24.744;2024-02-04T03:02:25;1.77;;;1.25;;
48951;SDS011;34758;42.148;24.744;2024-02-04T03:04:53;3.30;;;2.28;;
48951;SDS011;34758;42.148;24.744;2024-02-04T03:07:21;2.90;;;1.90;;
48951;SDS011;34758;42.148;24.744;2024-02-04T03:09:53;3.22;;;1.73;;
48951;SDS011;34758;42.148;24.744;2024-02-04T03:12:23;2.28;;;1.40;;
48951;SDS011;34758;42.148;24.744;2024-02-04T03:14:50;3.25;;;1.13;;
48951;SDS011;34758;42.148;24.744;2024-02-04T03:17:17;2.50;;;1.70;;
48951;SDS011;34758;42.148;24.744;2024-02-04T03:19:46;2.65;;;1.38;;
48951;SDS011;34758;42.148;24.744;2024-02-04T03:22:24;3.58;;;1.50;;
48951;SDS011;34758;42.148;24.744;2024-02-04T03:24:52;3.05;;;1.77;;
48951;SDS011;34758;42.148;24.744;2024-02-04T03:27:20;4.03;;;2.20;;
48951;SDS011;34758;42.148;24.744;2024-02-04T03:29:51;3.30;;;1.67;;
48951;SDS011;34758;42.148;24.744;2024-02-04T03:32:20;2.83;;;1.90;;
48951;SDS011;34758;42.148;24.744;2024-02-04T03:34:47;2.25;;;1.50;;
48951;SDS011;34758;42.148;24.744;2024-02-04T03:37:18;3.97;;;1.90;;
48951;SDS011;34758;42.148;24.744;2024-02-04T03:39:46;3.42;;;1.65;;
48951;SDS011;34758;42.148;24.744;2024-02-04T03:42:19;2.47;;;1.92;;
48951;SDS011;34758;42.148;24.744;2024-02-04T03:44:50;3.73;;;2.43;;
48951;SDS011;34758;42.148;24.744;2024-02-04T03:47:20;2.92;;;1.73;;
48951;SDS011;34758;42.148;24.744;2024-02-04T03:49:47;2.88;;;1.90;;
48951;SDS011;34758;42.148;24.744;2024-02-04T03:52:15;2.55;;;2.20;;
48951;SDS011;34758;42.148;24.744;2024-02-04T03:54:43;2.08;;;1.63;;
48951;SDS011;34758;42.148;24.744;2024-02-04T03:57:11;2.65;;;1.67;;
48951;SDS011;34758;42.148;24.744;2024-02-04T03:59:39;2.13;;;1.70;;
48951;SDS011;34758;42.148;24.744;2024-02-04T04:02:07;3.67;;;2.05;;
48951;SDS011;34758;42.148;24.744;2024-02-04T04:04:36;1.95;;;1.55;;
48951;SDS011;34758;42.148;24.744;2024-02-04T04:07:04;2.65;;;1.48;;
48951;SDS011;34758;42.148;24.744;2024-02-04T04:09:31;5.45;;;2.97;;
48951;SDS011;34758;42.148;24.744;2024-02-04T04:12:00;1.90;;;1.23;;
48951;SDS011;34758;42.148;24.744;2024-02-04T04:14:29;3.08;;;1.50;;
48951;SDS011;34758;42.148;24.744;2024-02-04T04:16:57;2.08;;;1.60;;
48951;SDS011;34758;42.148;24.744;2024-02-04T04:19:26;2.05;;;1.30;;
48951;SDS011;34758;42.148;24.744;2024-02-04T04:21:54;2.65;;;1.27;;
48951;SDS011;34758;42.148;24.744;2024-02-04T04:24:23;2.78;;;1.30;;
48951;SDS011;34758;42.148;24.744;2024-02-04T04:26:50;3.15;;;2.20;;
48951;SDS011;34758;42.148;24.744;2024-02-04T04:29:17;2.88;;;1.75;;
48951;SDS011;34758;42.148;24.744;2024-02-04T04:31:45;3.30;;;1.65;;
48951;SDS011;34758;42.148;24.744;2024-02-04T04:34:13;2.00;;;1.42;;
48951;SDS011;34758;42.148;24.744;2024-02-04T04:36:45;2.35;;;1.65;;
48951;SDS011;34758;42.148;24.744;2024-02-04T04:39:12;2.80;;;1.23;;
48951;SDS011;34758;42.148;24.744;2024-02-04T04:41:39;3.67;;;1.63;;
48951;SDS011;34758;42.148;24.744;2024-02-04T04:44:07;2.47;;;1.60;;
48951;SDS011;34758;42.148;24.744;2024-02-04T04:46:37;2.90;;;1.48;;
48951;SDS011;34758;42.148;24.744;2024-02-04T04:49:04;2.42;;;1.50;;
48951;SDS011;34758;42.148;24.744;2024-02-04T04:51:32;3.22;;;1.50;;
48951;SDS011;34758;42.148;24.744;2024-02-04T04:54:06;2.85;;;1.60;;
48951;SDS011;34758;42.148;24.744;2024-02-04T04:56:37;5.05;;;3.22;;
48951;SDS011;34758;42.148;24.744;2024-02-04T04:59:07;2.90;;;2.00;;
48951;SDS011;34758;42.148;24.744;2024-02-04T05:01:34;3.15;;;1.20;;
48951;SDS011;34758;42.148;24.744;2024-02-04T05:04:03;2.50;;;1.55;;
48951;SDS011;34758;42.148;24.744;2024-02-04T05:06:31;2.63;;;1.63;;
48951;SDS011;34758;42.148;24.744;2024-02-04T05:08:59;3.08;;;1.60;;
48951;SDS011;34758;42.148;24.744;2024-02-04T05:11:27;3.13;;;2.15;;
48951;SDS011;34758;42.148;24.744;2024-02-04T05:13:54;2.45;;;1.52;;
48951;SDS011;34758;42.148;24.744;2024-02-04T05:16:22;3.05;;;1.73;;
48951;SDS011;34758;42.148;24.744;2024-02-04T05:18:51;4.60;;;1.40;;
48951;SDS011;34758;42.148;24.744;2024-02-04T05:21:18;2.13;;;1.30;;
48951;SDS011;34758;42.148;24.744;2024-02-04T05:23:47;1.50;;;1.13;;
48951;SDS011;34758;42.148;24.744;2024-02-04T05:26:17;4.85;;;3.60;;
48951;SDS011;34758;42.148;24.744;2024-02-04T05:28:48;6.18;;;2.95;;
48951;SDS011;34758;42.148;24.744;2024-02-04T05:31:15;2.65;;;2.00;;
48951;SDS011;34758;42.148;24.744;2024-02-04T05:33:42;2.22;;;1.27;;
48951;SDS011;34758;42.148;24.744;2024-02-04T05:36:09;1.88;;;1.30;;
48951;SDS011;34758;42.148;24.744;2024-02-04T05:38:36;2.70;;;1.48;;
48951;SDS011;34758;42.148;24.744;2024-02-04T05:41:05;3.08;;;1.48;;
48951;SDS011;34758;42.148;24.744;2024-02-04T05:43:32;3.63;;;1.90;;
48951;SDS011;34758;42.148;24.744;2024-02-04T05:46:02;3.00;;;1.75;;
48951;SDS011;34758;42.148;24.744;2024-02-04T05:48:34;4.28;;;1.92;;
48951;SDS011;34758;42.148;24.744;2024-02-04T05:51:02;3.58;;;2.60;;
48951;SDS011;34758;42.148;24.744;2024-02-04T05:53:29;4.65;;;2.40;;
48951;SDS011;34758;42.148;24.744;2024-02-04T05:55:59;6.20;;;3.42;;
48951;SDS011;34758;42.148;24.744;2024-02-04T05:58:27;5.40;;;2.15;;
48951;SDS011;34758;42.148;24.744;2024-02-04T06:00:58;3.63;;;2.08;;
48951;SDS011;34758;42.148;24.744;2024-02-04T06:03:30;2.50;;;1.70;;
48951;SDS011;34758;42.148;24.744;2024-02-04T06:05:57;4.22;;;2.28;;
48951;SDS011;34758;42.148;24.744;2024-02-04T06:08:26;4.90;;;2.45;;
48951;SDS011;34758;42.148;24.744;2024-02-04T06:10:55;4.65;;;1.98;;
48951;SDS011;34758;42.148;24.744;2024-02-04T06:13:26;2.60;;;1.95;;
48951;SDS011;34758;42.148;24.744;2024-02-04T06:15:53;3.30;;;2.05;;
48951;SDS011;34758;42.148;24.744;2024-02-04T06:18:23;3.72;;;2.30;;
48951;SDS011;34758;42.148;24.744;2024-02-04T06:20:53;3.97;;;2.58;;
48951;SDS011;34758;42.148;24.744;2024-02-04T06:23:22;3.67;;;2.55;;
48951;SDS011;34758;42.148;24.744;2024-02-04T06:25:49;3.30;;;2.30;;
48951;SDS011;34758;42.148;24.744;2024-02-04T06:28:17;3.92;;;2.80;;
48951;SDS011;34758;42.148;24.744;2024-02-04T06:30:45;3.67;;;2.75;;
48951;SDS011;34758;42.148;24.744;2024-02-04T06:33:13;3.50;;;2.20;;
48951;SDS011;34758;42.148;24.744;2024-02-04T06:35:40;3.45;;;1.77;;
48951;SDS011;34758;42.148;24.744;2024-02-04T06:38:11;3.35;;;2.28;;
48951;SDS011;34758;42.148;24.744;2024-02-04T06:40:40;5.70;;;2.05;;
48951;SDS011;34758;42.148;24.744;2024-02-04T06:43:08;5.18;;;2.45;;
48951;SDS011;34758;42.148;24.744;2024-02-04T06:45:42;5.35;;;2.17;;
48951;SDS011;34758;42.148;24.744;2024-02-04T06:48:10;5.03;;;1.90;;
48951;SDS011;34758;42.148;24.744;2024-02-04T06:50:37;3.83;;;1.70;;
48951;SDS011;34758;42.148;24.744;2024-02-04T06:53:06;2.53;;;1.40;;
48951;SDS011;34758;42.148;24.744;2024-02-04T06:55:40;4.55;;;1.90;;
48951;SDS011;34758;42.148;24.744;2024-02-04T06:58:10;3.33;;;1.40;;
48951;SDS011;34758;42.148;24.744;2024-02-04T07:00:40;2.55;;;1.15;;
48951;SDS011;34758;42.148;24.744;2024-02-04T07:03:08;2.67;;;1.45;;
48951;SDS011;34758;42.148;24.744;2024-02-04T07:05:37;2.70;;;1.40;;
48951;SDS011;34758;42.148;24.744;2024-02-04T07:08:16;2.28;;;1.35;;
48951;SDS011;34758;42.148;24.744;2024-02-04T07:10:42;1.55;;;1.35;;
48951;SDS011;34758;42.148;24.744;2024-02-04T07:13:13;2.13;;;1.25;;
48951;SDS011;34758;42.148;24.744;2024-02-04T07:15:40;3.05;;;1.75;;
48951;SDS011;34758;42.148;24.744;2024-02-04T07:18:16;4.05;;;1.42;;
48951;SDS011;34758;42.148;24.744;2024-02-04T07:20:47;3.13;;;2.08;;
48951;SDS011;34758;42.148;24.744;2024-02-04T07:23:17;2.80;;;1.83;;
48951;SDS011;34758;42.148;24.744;2024-02-04T07:25:45;2.10;;;1.52;;
48951;SDS011;34758;42.148;24.744;2024-02-04T07:28:14;2.83;;;1.70;;
48951;SDS011;34758;42.148;24.744;2024-02-04T07:30:41;3.17;;;2.13;;
48951;SDS011;34758;42.148;24.744;2024-02-04T07:33:14;2.85;;;1.45;;
48951;SDS011;34758;42.148;24.744;2024-02-04T07:35:45;2.78;;;1.88;;
48951;SDS011;34758;42.148;24.744;2024-02-04T07:38:13;4.53;;;2.55;;
48951;SDS011;34758;42.148;24.744;2024-02-04T07:40:43;4.60;;;2.75;;
48951;SDS011;34758;42.148;24.744;2024-02-04T07:43:13;6.57;;;3.77;;
48951;SDS011;34758;42.148;24.744;2024-02-04T07:45:44;7.25;;;2.28;;
48951;SDS011;34758;42.148;24.744;2024-02-04T07:48:12;3.22;;;1.52;;
48951;SDS011;34758;42.148;24.744;2024-02-04T07:50:42;3.65;;;1.60;;
48951;SDS011;34758;42.148;24.744;2024-02-04T07:53:11;2.63;;;1.48;;
48951;SDS011;34758;42.148;24.744;2024-02-04T07:55:39;3.83;;;1.73;;
48951;SDS011;34758;42.148;24.744;2024-02-04T07:58:11;3.28;;;1.42;;
48951;SDS011;34758;42.148;24.744;2024-02-04T08:00:41;4.40;;;1.90;;
48951;SDS011;34758;42.148;24.744;2024-02-04T08:03:09;4.25;;;1.90;;
48951;SDS011;34758;42.148;24.744;2024-02-04T08:05:38;2.67;;;1.65;;
48951;SDS011;34758;42.148;24.744;2024-02-04T08:08:07;2.28;;;1.58;;
48951;SDS011;34758;42.148;24.744;2024-02-04T08:10:36;3.25;;;2.10;;
48951;SDS011;34758;42.148;24.744;2024-02-04T08:13:04;3.75;;;1.77;;
48951;SDS011;34758;42.148;24.744;2024-02-04T08:15:39;4.13;;;2.35;;
48951;SDS011;34758;42.148;24.744;2024-02-04T08:18:09;4.07;;;2.67;;
48951;SDS011;34758;42.148;24.744;2024-02-04T08:20:36;4.70;;;2.65;;
48951;SDS011;34758;42.148;24.744;2024-02-04T08:23:04;5.78;;;3.15;;
48951;SDS011;34758;42.148;24.744;2024-02-04T08:25:31;3.25;;;2.95;;
48951;SDS011;34758;42.148;24.744;2024-02-04T08:28:02;4.73;;;2.77;;
48951;SDS011;34758;42.148;24.744;2024-02-04T08:30:31;5.30;;;3.40;;
48951;SDS011;34758;42.148;24.744;2024-02-04T08:33:03;5.32;;;2.92;;
48951;SDS011;34758;42.148;24.744;2024-02-04T08:35:32;4.07;;;3.22;;
48951;SDS011;34758;42.148;24.744;2024-02-04T08:37:59;4.35;;;2.80;;
48951;SDS011;34758;42.148;24.744;2024-02-04T08:40:28;4.57;;;3.67;;
48951;SDS011;34758;42.148;24.744;2024-02-04T08:42:56;4.57;;;2.65;;
48951;SDS011;34758;42.148;24.744;2024-02-04T08:45:24;5.28;;;2.80;;
48951;SDS011;34758;42.148;24.744;2024-02-04T08:47:51;5.82;;;2.20;;
48951;SDS011;34758;42.148;24.744;2024-02-04T08:50:20;6.45;;;2.75;;
48951;SDS011;34758;42.148;24.744;2024-02-04T08:52:48;3.30;;;2.10;;
48951;SDS011;34758;42.148;24.744;2024-02-04T08:55:16;2.72;;;2.42;;
48951;SDS011;34758;42.148;24.744;2024-02-04T08:57:44;4.05;;;2.03;;
48951;SDS011;34758;42.148;24.744;2024-02-04T09:00:13;4.53;;;2.42;;
48951;SDS011;34758;42.148;24.744;2024-02-04T09:02:41;3.35;;;2.10;;
48951;SDS011;34758;42.148;24.744;2024-02-04T09:05:09;5.55;;;2.42;;
48951;SDS011;34758;42.148;24.744;2024-02-04T09:07:39;4.55;;;2.17;;
48951;SDS011;34758;42.148;24.744;2024-02-04T09:10:07;3.55;;;2.45;;
48951;SDS011;34758;42.148;24.744;2024-02-04T09:12:36;3.35;;;2.28;;
48951;SDS011;34758;42.148;24.744;2024-02-04T09:15:05;4.03;;;2.45;;
48951;SDS011;34758;42.148;24.744;2024-02-04T09:17:35;3.72;;;2.25;;
48951;SDS011;34758;42.148;24.744;2024-02-04T09:20:04;4.22;;;2.42;;
48951;SDS011;34758;42.148;24.744;2024-02-04T09:22:34;5.85;;;1.88;;
48951;SDS011;34758;42.148;24.744;2024-02-04T09:25:05;6.88;;;4.00;;
48951;SDS011;34758;42.148;24.744;2024-02-04T09:27:33;5.43;;;3.63;;
48951;SDS011;34758;42.148;24.744;2024-02-04T09:30:05;3.60;;;2.20;;
48951;SDS011;34758;42.148;24.744;2024-02-04T09:32:33;3.47;;;1.88;;
48951;SDS011;34758;42.148;24.744;2024-02-04T09:35:01;2.63;;;1.85;;
48951;SDS011;34758;42.148;24.744;2024-02-04T09:37:30;3.38;;;2.03;;
48951;SDS011;34758;42.148;24.744;2024-02-04T09:40:08;2.63;;;1.73;;
48951;SDS011;34758;42.148;24.744;2024-02-04T09:42:37;5.95;;;2.17;;
48951;SDS011;34758;42.148;24.744;2024-02-04T09:45:06;5.82;;;1.75;;
48951;SDS011;34758;42.148;24.744;2024-02-04T09:47:38;2.70;;;1.67;;
48951;SDS011;34758;42.148;24.744;2024-02-04T09:50:08;4.00;;;2.28;;
48951;SDS011;34758;42.148;24.744;2024-02-04T09:52:37;3.22;;;1.95;;
48951;SDS011;34758;42.148;24.744;2024-02-04T09:55:09;2.42;;;1.52;;
48951;SDS011;34758;42.148;24.744;2024-02-04T09:57:39;2.65;;;1.85;;
48951;SDS011;34758;42.148;24.744;2024-02-04T10:00:06;3.15;;;1.77;;
48951;SDS011;34758;42.148;24.744;2024-02-04T10:02:36;2.75;;;1.80;;
48951;SDS011;34758;42.148;24.744;2024-02-04T10:05:03;2.38;;;1.40;;
48951;SDS011;34758;42.148;24.744;2024-02-04T10:07:31;3.00;;;1.98;;
48951;SDS011;34758;42.148;24.744;2024-02-04T10:10:01;3.42;;;1.73;;
48951;SDS011;34758;42.148;24.744;2024-02-04T10:12:29;2.83;;;1.75;;
48951;SDS011;34758;42.148;24.744;2024-02-04T10:14:57;2.42;;;1.48;;
48951;SDS011;34758;42.148;24.744;2024-02-04T10:17:26;5.65;;;1.55;;
48951;SDS011;34758;42.148;24.744;2024-02-04T10:19:54;2.88;;;1.25;;
48951;SDS011;34758;42.148;24.744;2024-02-04T10:22:25;2.03;;;1.20;;
48951;SDS011;34758;42.148;24.744;2024-02-04T10:24:53;5.82;;;2.25;;
48951;SDS011;34758;42.148;24.744;2024-02-04T10:27:20;4.70;;;0.98;;
48951;SDS011;34758;42.148;24.744;2024-02-04T10:29:50;7.70;;;1.40;;
48951;SDS011;34758;42.148;24.744;2024-02-04T10:32:21;4.45;;;1.92;;
48951;SDS011;34758;42.148;24.744;2024-02-04T10:34:48;2.20;;;0.90;;
48951;SDS011;34758;42.148;24.744;2024-02-04T10:37:17;5.68;;;0.88;;
48951;SDS011;34758;42.148;24.744;2024-02-04T10:39:45;2.70;;;0.98;;
48951;SDS011;34758;42.148;24.744;2024-02-04T10:42:14;2.22;;;1.00;;
48951;SDS011;34758;42.148;24.744;2024-02-04T10:44:44;3.80;;;1.30;;
48951;SDS011;34758;42.148;24.744;2024-02-04T10:47:17;2.25;;;1.08;;
48951;SDS011;34758;42.148;24.744;2024-02-04T10:49:50;2.95;;;1.13;;
48951;SDS011;34758;42.148;24.744;2024-02-04T10:52:20;1.92;;;1.05;;
48951;SDS011;34758;42.148;24.744;2024-02-04T10:54:49;4.15;;;1.98;;
48951;SDS011;34758;42.148;24.744;2024-02-04T10:57:20;3.67;;;1.30;;
48951;SDS011;34758;42.148;24.744;2024-02-04T10:59:48;2.33;;;1.42;;
48951;SDS011;34758;42.148;24.744;2024-02-04T11:02:17;3.95;;;1.52;;
48951;SDS011;34758;42.148;24.744;2024-02-04T11:04:46;2.15;;;1.00;;
48951;SDS011;34758;42.148;24.744;2024-02-04T11:07:15;2.85;;;1.30;;
48951;SDS011;34758;42.148;24.744;2024-02-04T11:09:45;2.05;;;1.20;;
48951;SDS011;34758;42.148;24.744;2024-02-04T11:12:16;2.97;;;1.15;;
48951;SDS011;34758;42.148;24.744;2024-02-04T11:14:46;2.25;;;1.05;;
48951;SDS011;34758;42.148;24.744;2024-02-04T11:20:25;3.58;;;1.67;;
48951;SDS011;34758;42.148;24.744;2024-02-04T11:23:05;1.25;;;0.63;;
48951;SDS011;34758;42.148;24.744;2024-02-04T11:25:52;1.90;;;1.00;;
48951;SDS011;34758;42.148;24.744;2024-02-04T11:28:22;1.45;;;0.60;;
48951;SDS011;34758;42.148;24.744;2024-02-04T11:30:51;3.20;;;0.70;;
48951;SDS011;34758;42.148;24.744;2024-02-04T11:33:21;4.43;;;0.80;;
48951;SDS011;34758;42.148;24.744;2024-02-04T11:35:58;1.00;;;0.65;;
48951;SDS011;34758;42.148;24.744;2024-02-04T11:38:30;1.20;;;0.65;;
48951;SDS011;34758;42.148;24.744;2024-02-04T11:40:59;1.92;;;0.70;;
48951;SDS011;34758;42.148;24.744;2024-02-04T11:43:26;1.50;;;0.32;;
48951;SDS011;34758;42.148;24.744;2024-02-04T11:45:53;5.65;;;0.77;;
48951;SDS011;34758;42.148;24.744;2024-02-04T11:48:28;3.42;;;0.80;;
48951;SDS011;34758;42.148;24.744;2024-02-04T11:50:57;10.32;;;1.00;;
48951;SDS011;34758;42.148;24.744;2024-02-04T11:53:26;4.25;;;0.80;;
48951;SDS011;34758;42.148;24.744;2024-02-04T11:58:27;6.30;;;0.82;;
48951;SDS011;34758;42.148;24.744;2024-02-04T12:00:54;4.88;;;0.60;;
48951;SDS011;34758;42.148;24.744;2024-02-04T12:03:32;5.43;;;0.60;;
48951;SDS011;34758;42.148;24.744;2024-02-04T12:06:02;15.10;;;1.08;;
48951;SDS011;34758;42.148;24.744;2024-02-04T12:08:32;4.55;;;0.68;;
48951;SDS011;34758;42.148;24.744;2024-02-04T12:11:02;4.38;;;0.40;;
48951;SDS011;34758;42.148;24.744;2024-02-04T12:13:30;6.40;;;0.50;;
48951;SDS011;34758;42.148;24.744;2024-02-04T12:16:03;5.95;;;0.95;;
48951;SDS011;34758;42.148;24.744;2024-02-04T12:18:48;0.82;;;0.30;;
48951;SDS011;34758;42.148;24.744;2024-02-04T12:21:20;3.30;;;0.90;;
48951;SDS011;34758;42.148;24.744;2024-02-04T12:23:47;4.60;;;0.57;;
48951;SDS011;34758;42.148;24.744;2024-02-04T12:26:17;0.70;;;0.20;;
48951;SDS011;34758;42.148;24.744;2024-02-04T12:28:48;6.30;;;0.40;;
48951;SDS011;34758;42.148;24.744;2024-02-04T12:31:17;1.50;;;0.30;;
48951;SDS011;34758;42.148;24.744;2024-02-04T12:33:53;0.98;;;0.30;;
48951;SDS011;34758;42.148;24.744;2024-02-04T12:36:23;1.45;;;0.30;;
48951;SDS011;34758;42.148;24.744;2024-02-04T12:38:53;0.85;;;0.40;;
48951;SDS011;34758;42.148;24.744;2024-02-04T12:41:21;2.55;;;0.50;;
48951;SDS011;34758;42.148;24.744;2024-02-04T12:43:54;4.55;;;0.65;;
48951;SDS011;34758;42.148;24.744;2024-02-04T12:46:24;2.75;;;0.30;;
48951;SDS011;34758;42.148;24.744;2024-02-04T12:48:52;5.13;;;0.57;;
48951;SDS011;34758;42.148;24.744;2024-02-04T12:51:24;1.77;;;0.60;;
48951;SDS011;34758;42.148;24.744;2024-02-04T12:54:04;1.15;;;0.40;;
48951;SDS011;34758;42.148;24.744;2024-02-04T12:56:41;3.35;;;0.63;;
48951;SDS011;34758;42.148;24.744;2024-02-04T12:59:23;1.15;;;0.40;;
48951;SDS011;34758;42.148;24.744;2024-02-04T13:01:52;1.17;;;0.40;;
48951;SDS011;34758;42.148;24.744;2024-02-04T13:04:22;1.90;;;0.80;;
48951;SDS011;34758;42.148;24.744;2024-02-04T13:06:50;0.98;;;0.50;;
48951;SDS011;34758;42.148;24.744;2024-02-04T13:09:18;1.15;;;0.70;;
48951;SDS011;34758;42.148;24.744;2024-02-04T13:11:48;3.25;;;1.00;;
48951;SDS011;34758;42.148;24.744;2024-02-04T13:14:15;1.02;;;0.68;;
48951;SDS011;34758;42.148;24.744;2024-02-04T13:16:43;1.85;;;0.70;;
48951;SDS011;34758;42.148;24.744;2024-02-04T13:19:12;0.90;;;0.43;;
48951;SDS011;34758;42.148;24.744;2024-02-04T13:21:42;1.55;;;0.50;;
48951;SDS011;34758;42.148;24.744;2024-02-04T13:24:12;1.73;;;1.00;;
48951;SDS011;34758;42.148;24.744;2024-02-04T13:26:41;2.33;;;1.02;;
48951;SDS011;34758;42.148;24.744;2024-02-04T13:29:10;3.78;;;2.05;;
48951;SDS011;34758;42.148;24.744;2024-02-04T13:31:38;1.45;;;0.70;;
48951;SDS011;34758;42.148;24.744;2024-02-04T13:34:07;2.03;;;0.60;;
48951;SDS011;34758;42.148;24.744;2024-02-04T13:36:34;1.48;;;0.50;;
48951;SDS011;34758;42.148;24.744;2024-02-04T13:39:03;1.42;;;0.80;;
48951;SDS011;34758;42.148;24.744;2024-02-04T13:41:31;1.42;;;0.52;;
48951;SDS011;34758;42.148;24.744;2024-02-04T13:43:59;2.92;;;1.13;;
48951;SDS011;34758;42.148;24.744;2024-02-04T13:46:27;2.40;;;1.02;;
48951;SDS011;34758;42.148;24.744;2024-02-04T13:48:57;1.83;;;0.60;;
48951;SDS011;34758;42.148;24.744;2024-02-04T13:51:25;0.77;;;0.52;;
48951;SDS011;34758;42.148;24.744;2024-02-04T13:53:52;1.05;;;0.50;;
48951;SDS011;34758;42.148;24.744;2024-02-04T13:56:22;2.17;;;0.50;;
48951;SDS011;34758;42.148;24.744;2024-02-04T13:58:51;1.50;;;0.45;;
48951;SDS011;34758;42.148;24.744;2024-02-04T14:01:19;4.25;;;2.08;;
48951;SDS011;34758;42.148;24.744;2024-02-04T14:03:50;2.03;;;0.97;;
48951;SDS011;34758;42.148;24.744;2024-02-04T14:06:18;4.40;;;1.88;;
48951;SDS011;34758;42.148;24.744;2024-02-04T14:08:46;4.97;;;2.03;;
48951;SDS011;34758;42.148;24.744;2024-02-04T14:11:14;1.90;;;1.20;;
48951;SDS011;34758;42.148;24.744;2024-02-04T14:13:44;2.90;;;1.10;;
48951;SDS011;34758;42.148;24.744;2024-02-04T14:16:11;2.15;;;0.70;;
48951;SDS011;34758;42.148;24.744;2024-02-04T14:18:41;2.05;;;0.50;;
48951;SDS011;34758;42.148;24.744;2024-02-04T14:21:11;2.42;;;0.65;;
48951;SDS011;34758;42.148;24.744;2024-02-04T14:23:40;3.13;;;0.70;;
48951;SDS011;34758;42.148;24.744;2024-02-04T14:26:07;2.65;;;0.65;;
48951;SDS011;34758;42.148;24.744;2024-02-04T14:28:46;1.35;;;0.55;;
48951;SDS011;34758;42.148;24.744;2024-02-04T14:31:13;3.35;;;1.70;;
48951;SDS011;34758;42.148;24.744;2024-02-04T14:33:42;1.88;;;0.80;;
48951;SDS011;34758;42.148;24.744;2024-02-04T14:36:09;3.05;;;1.05;;
48951;SDS011;34758;42.148;24.744;2024-02-04T14:38:36;0.88;;;0.57;;
48951;SDS011;34758;42.148;24.744;2024-02-04T14:41:05;0.73;;;0.50;;
48951;SDS011;34758;42.148;24.744;2024-02-04T14:43:35;0.98;;;0.60;;
48951;SDS011;34758;42.148;24.744;2024-02-04T14:46:04;1.05;;;0.30;;
48951;SDS011;34758;42.148;24.744;2024-02-04T14:48:35;2.85;;;0.50;;
48951;SDS011;34758;42.148;24.744;2024-02-04T14:51:03;2.95;;;0.50;;
48951;SDS011;34758;42.148;24.744;2024-02-04T14:53:31;0.80;;;0.45;;